METAR Data
IDs: Format: Raw Decoded Include TAF

Data at: 0853 UTC 26 Jan 2020

KRRL 260835Z AUTO 31010KT 10SM OVC009 00/M01 A2984 RMK AO2 T10031015 TSNO
KRRL 260815Z AUTO 30008KT 10SM OVC009 00/M01 A2984 RMK AO2 T10021012 TSNO
KRRL 260755Z AUTO 31005KT 10SM OVC009 00/M01 A2984 RMK AO2 T10021011 TSNO
KRRL 260735Z AUTO 31008KT 10SM OVC009 00/M01 A2984 RMK AO2 T10011010 TSNO
KRRL 260715Z AUTO 31005KT 10SM OVC009 00/M01 A2984 RMK AO2 T10011010 TSNO
KRRL 260655Z AUTO 31006KT 10SM OVC009 00/M01 A2983 RMK AO2 T10011010 TSNO
KRRL 260635Z AUTO 31005KT 10SM OVC009 00/M01 A2984 RMK AO2 T00001010 TSNO
KRRL 260615Z AUTO 32005KT 10SM OVC011 00/M01 A2984 RMK AO2 T00001012 TSNO
KRRL 260555Z AUTO 31005KT 10SM OVC011 00/M01 A2984 RMK AO2 T00001012 10005 20000 400201006 TSNO
KRRL 260535Z AUTO 33006KT 10SM OVC013 00/M01 A2984 RMK AO2 T00001014 TSNO
KRRL 260515Z AUTO 31003KT 10SM OVC013 00/M01 A2984 RMK AO2 T00001014 TSNO
KRRL 260455Z AUTO 34006KT 10SM OVC013 00/M01 A2983 RMK AO2 T00001012 TSNO
KRRL 260435Z AUTO 32004KT 10SM OVC013 00/M01 A2983 RMK AO2 T00001010 TSNO
KRRL 260415Z AUTO 32006KT 10SM OVC013 00/M01 A2983 RMK AO2 T00001008 TSNO
KRRL 260355Z AUTO 33004KT 7SM -SN BKN013 OVC017 00/M01 A2983 RMK AO2 T00001006 TSNO
KRRL 260335Z AUTO 32003KT 7SM -SN OVC017 00/00 A2983 RMK AO2 T00001005 TSNO
KRRL 260315Z AUTO 32006KT 7SM -SN OVC017 00/M01 A2983 RMK AO2 T00001009 TSNO
KRRL 260255Z AUTO 33005KT 10SM -SN OVC015 00/M01 A2983 RMK AO2 T00001008 TSNO
KRRL 260235Z AUTO 33005KT 7SM -SN OVC015 00/00 A2983 RMK AO2 T00001004 TSNO
KRRL 260215Z AUTO 00000KT 2 1/2SM -SN BKN013 OVC020 00/00 A2983 RMK AO2 T00001003 TSNO
KRRL 260155Z AUTO 00000KT 7SM -SN BKN015 OVC020 00/M01 A2983 RMK AO2 T00011006 TSNO
KRRL 260135Z AUTO 34004KT 10SM UP OVC015 00/M01 A2983 RMK AO2 T00001007 TSNO
KRRL 260115Z AUTO 34003KT 7SM UP SCT009 OVC015 00/00 A2983 RMK AO2 T00001003 TSNO
KRRL 260055Z AUTO 33005KT 4SM UP BKN011 OVC017 00/00 A2983 RMK AO2 T00001003 TSNO
KRRL 260035Z AUTO 32004KT 5SM -SN OVC013 00/00 A2983 RMK AO2 T00021003 TSNO
KRRL 260015Z AUTO 32005KT 10SM -SN BKN013 OVC019 01/00 A2982 RMK AO2 T00051002 TSNO
KRRL 252355Z AUTO 32005KT 10SM BKN011 OVC019 01/00 A2982 RMK AO2 T00051001 10020 20005 TSNO
KRRL 252335Z AUTO 34004KT 5SM -RA BKN011 OVC014 01/00 A2982 RMK AO2 T00060001 TSNO
KRRL 252315Z AUTO 33005KT 10SM -DZ BKN013 BKN019 OVC055 01/00 A2981 RMK AO2 T00080001 TSNO
KRRL 252255Z AUTO 34003KT 10SM -DZ BKN013 OVC020 01/00 A2981 RMK AO2 T00090001 TSNO
KRRL 252235Z AUTO 34007KT 10SM -DZ BKN014 BKN021 OVC037 01/00 A2981 RMK AO2 T00110000 TSNO
KRRL 252215Z AUTO 34010KT 10SM BKN015 BKN019 OVC034 02/00 A2981 RMK AO2 T00150000 TSNO
KRRL 252155Z AUTO 35011KT 10SM OVC015 02/00 A2980 RMK AO2 T00170000 TSNO
KRRL 252135Z AUTO 34006KT 10SM BKN015 OVC032 02/00 A2980 RMK AO2 T00190000 TSNO
KRRL 252115Z AUTO 34007KT 10SM BKN015 BKN023 OVC030 02/00 A2979 RMK AO2 T00180000 TSNO
KRRL 252055Z AUTO 35007KT 10SM SCT013 BKN018 OVC035 02/00 A2979 RMK AO2 T00160000 TSNO
KRRL 252035Z AUTO 35005KT 10SM BKN013 OVC017 02/00 A2979 RMK AO2 T00150000 TSNO
KRRL 252015Z AUTO 35005KT 10SM OVC015 02/00 A2979 RMK AO2 T00150000 TSNO
KRRL 251955Z AUTO 34005KT 10SM OVC015 02/00 A2979 RMK AO2 T00150000 TSNO
KRRL 251935Z AUTO 35006KT 10SM OVC013 01/00 A2979 RMK AO2 T00140000 TSNO
KRRL 251915Z AUTO 36007KT 10SM OVC013 02/00 A2980 RMK AO2 T00150000 TSNO
KRRL 251855Z AUTO 01007KT 10SM OVC013 01/00 A2980 RMK AO2 T00130000 TSNO
KRRL 251835Z AUTO 01007KT 10SM OVC011 01/00 A2979 RMK AO2 T00110000 TSNO
KRRL 251815Z AUTO 36008KT 10SM BKN011 OVC017 01/00 A2980 RMK AO2 T00101002 TSNO
KRRL 251755Z AUTO 36008KT 10SM OVC011 01/00 A2980 RMK AO2 60001 T00101001 10010 21006 TSNO
KRRL 251735Z AUTO 36006KT 10SM OVC011 01/00 A2981 RMK AO2 T00081002 TSNO
KRRL 251715Z AUTO 36009KT 7SM BKN010 BKN034 OVC055 01/00 A2981 RMK AO2 T00071002 TSNO
KRRL 251655Z AUTO 01007KT 4SM -SN BKN010 OVC032 01/00 A2981 RMK AO2 T00051003 TSNO
KRRL 251635Z AUTO 01008KT 5SM -SN BKN010 OVC015 01/00 A2981 RMK AO2 T00051005 TSNO
KRRL 251615Z AUTO 01008KT 10SM -RA BKN010 BKN027 OVC031 01/00 A2981 RMK AO2 T00051005 TSNO
KRRL 251555Z AUTO 01007KT 7SM -SN BKN010 BKN023 OVC034 00/00 A2980 RMK AO2 T00001005 TSNO
KRRL 251535Z AUTO 01008KT 7SM -SN BKN012 OVC036 00/M01 A2980 RMK AO2 T00001007 TSNO
KRRL 251515Z AUTO 36005KT 7SM -SN BKN010 OVC025 00/M01 A2980 RMK AO2 T10011007 TSNO
KRRL 251455Z AUTO 36004KT 4SM -SN BKN010 BKN027 OVC080 00/00 A2980 RMK AO2 60001 T10011005 TSNO
KRRL 251435Z AUTO 35004KT 3SM -SN SCT010 BKN027 OVC050 00/00 A2980 RMK AO2 T10031005 TSNO
KRRL 251415Z AUTO 35003KT 1SM -SN BKN008 BKN019 OVC026 00/00 A2980 RMK AO2 VIS 1/2V1 3/4 T10051005 TSNO
KRRL 251355Z AUTO 36004KT 1 1/2SM -SN SCT008 SCT011 OVC019 00/M01 A2980 RMK AO2 P0001 T10051006 TSNO
KRRL 251335Z AUTO 35003KT 2 1/2SM -SN SCT010 BKN019 OVC026 00/M01 A2980 RMK AO2 T10051006 TSNO
KRRL 251315Z AUTO 36003KT 3SM -SN SCT008 BKN019 OVC032 00/M01 A2979 RMK AO2 T10051006 TSNO
KRRL 251255Z AUTO 36003KT 4SM -SN SCT008 BKN027 OVC038 00/00 A2979 RMK AO2 T10051005 TSNO
KRRL 251235Z AUTO 01003KT 3SM -SN SCT006 BKN022 OVC027 00/00 A2979 RMK AO2 T10051005 TSNO
KRRL 251215Z AUTO 01004KT 2 1/2SM -SN BKN008 BKN014 OVC022 00/00 A2978 RMK AO2 T10051005 TSNO
KRRL 251155Z AUTO 04003KT 2SM -SN SCT005 OVC010 M01/M01 A2978 RMK AO2 P0002 60004 70006 T10061006 10000 21006 TSNO
KRRL 251135Z AUTO 02007KT 1 1/4SM -SN OVC005 00/00 A2978 RMK AO2 P0001 T10041004 TSNO
KRRL 251115Z AUTO 35004KT 1 1/2SM -SN BKN005 OVC016 00/00 A2978 RMK AO2 T10021002 TSNO
KRRL 251055Z AUTO 34003KT 1 1/4SM -SN SCT005 OVC016 00/00 A2978 RMK AO2 T10021002 TSNO
KRRL 251035Z AUTO 35004KT 1 3/4SM -SN SCT005 BKN016 OVC025 00/00 A2978 RMK AO2 T10011001 TSNO
KRRL 251015Z AUTO 35004KT 5SM UP SCT017 BKN023 OVC028 00/00 A2978 RMK AO2 T10011001 TSNO
KRRL 250955Z AUTO 36004KT 4SM UP BKN017 BKN022 OVC027 00/00 A2978 RMK AO2 T00001001 TSNO
KRRL 250935Z AUTO 36004KT 7SM UP BKN021 OVC026 00/00 A2978 RMK AO2 T00001001 TSNO
KRRL 250915Z AUTO 01004KT 10SM UP BKN022 OVC036 00/00 A2979 RMK AO2 T00001001 TSNO
KRRL 250855Z AUTO 01004KT 10SM UP SCT008 BKN065 OVC090 00/00 A2979 RMK AO2 60002 T10011002 TSNO
KRRL 250835Z AUTO 01004KT 10SM UP BKN070 OVC090 00/00 A2979 RMK AO2 T00001001 TSNO
KRRL 250815Z AUTO 01004KT 10SM UP BKN070 OVC090 00/00 A2980 RMK AO2 T00000000 TSNO
KRRL 250755Z AUTO 36004KT 7SM UP SCT005 BKN080 OVC110 00/00 A2980 RMK AO2 P0001 T00000000 TSNO
KRRL 250735Z AUTO 01004KT 5SM -SN SCT005 BKN026 OVC110 00/00 A2980 RMK AO2 T00000000 TSNO
KRRL 250715Z AUTO 01004KT 2 1/2SM -SN SCT003 BKN020 OVC027 00/00 A2981 RMK AO2 T00000000 TSNO
KRRL 250655Z AUTO 01004KT 1 1/2SM -SN SCT006 OVC014 00/00 A2982 RMK AO2 P0001 T00000000 TSNO
KRRL 250635Z AUTO 01004KT 3SM -SN SCT019 BKN024 OVC035 00/00 A2982 RMK AO2 T00000000 TSNO
KRRL 250615Z AUTO 36003KT 7SM UP OVC035 00/00 A2983 RMK AO2 T00000000 TSNO
KRRL 250555Z AUTO 36004KT 4SM UP SCT005 SCT020 OVC035 00/00 A2983 RMK AO2 T00000000 10002 20000 400121012 TSNO
KRRL 250535Z AUTO 01004KT 2 1/2SM -SN SCT003 BKN017 OVC024 00/00 A2983 RMK AO2 T00000000 TSNO
KRRL 250515Z AUTO 02003KT 1 3/4SM -SN OVC017 00/00 A2983 RMK AO2 T00010001 TSNO
KRRL 250455Z AUTO 02004KT 4SM -SN OVC013 00/00 A2983 RMK AO2 T00010001 TSNO
KRRL 250435Z AUTO 01004KT 10SM -DZ OVC011 00/00 A2983 RMK AO2 T00010001 TSNO
KRRL 250415Z AUTO 01005KT 10SM UP OVC013 00/00 A2984 RMK AO2 T00010001 TSNO
KRRL 250355Z AUTO 01004KT 7SM OVC013 00/00 A2984 RMK AO2 T00010001 TSNO
KRRL 250335Z AUTO 01004KT 7SM UP BKN013 BKN024 OVC035 00/00 A2984 RMK AO2 T00010001 TSNO
KRRL 250315Z AUTO 01003KT 4SM UP SCT010 OVC035 00/00 A2985 RMK AO2 T00010001 TSNO
KRRL 250255Z AUTO 03004KT 3SM -SN SCT005 BKN010 OVC018 00/00 A2986 RMK AO2 T00010001 TSNO
KRRL 250235Z AUTO 01004KT 5SM UP SCT006 BKN019 OVC046 00/00 A2986 RMK AO2 T00010001 TSNO
KRRL 250215Z AUTO 02004KT 4SM UP SCT006 BKN037 OVC046 00/00 A2986 RMK AO2 T00010001 TSNO
KRRL 250155Z AUTO 04004KT 4SM UP SCT006 SCT012 OVC044 00/00 A2987 RMK AO2 T00020002 TSNO
KRRL 250135Z AUTO 03004KT 4SM UP SCT006 BKN010 OVC040 00/00 A2988 RMK AO2 T00020002 TSNO
KRRL 250115Z AUTO 03004KT 5SM BR OVC010 00/00 A2988 RMK AO2 T00020002 TSNO
KRRL 250055Z AUTO 03005KT 4SM BR OVC010 00/00 A2989 RMK AO2 T00020002 TSNO
KRRL 250035Z AUTO 01005KT 7SM UP OVC012 00/00 A2988 RMK AO2 T00020002 TSNO
KRRL 250015Z AUTO 01005KT 5SM UP BKN014 OVC020 00/00 A2988 RMK AO2 T00020002 TSNO
KRRL 242355Z AUTO 02004KT 5SM UP SCT012 OVC020 00/00 A2989 RMK AO2 T00020002 10012 20002 TSNO
KRRL 242335Z AUTO 02003KT 5SM -DZ SCT004 BKN022 OVC032 00/00 A2989 RMK AO2 T00020002 TSNO
KRRL 242315Z AUTO 00000KT 2 1/2SM DZ SCT004 BKN007 OVC037 00/00 A2989 RMK AO2 T00020002 TSNO
KRRL 242255Z AUTO 03003KT 3SM -RA SCT008 SCT019 OVC037 00/00 A2989 RMK AO2 T00030003 TSNO
KRRL 242235Z AUTO 03005KT 4SM UP SCT005 BKN017 OVC036 00/00 A2989 RMK AO2 T00030003 TSNO
KRRL 242215Z AUTO 06004KT 3SM -RA SCT008 OVC014 01/01 A2989 RMK AO2 T00050005 TSNO
KRRL 242155Z AUTO 04005KT 5SM -RA OVC012 01/00 A2990 RMK AO2 T00050003 TSNO
KRRL 242135Z AUTO 07005KT 3SM -RA OVC010 01/00 A2990 RMK AO2 T00070003 TSNO
KRRL 242115Z AUTO 06004KT 4SM -SN OVC010 01/00 A2990 RMK AO2 T00080001 TSNO
KRRL 242055Z AUTO 05006KT 10SM OVC013 01/00 A2989 RMK AO2 T00110001 TSNO